This is the latest recevied weather packets stored in our database for station/object IU1OPQ-3. If no packets are shown the sender has not sent any weather packets the latest 10 day(s).
| Time | Temp. | Humidity | Pressure | Rain* | Wind** | Luminosity | Snow |
|---|---|---|---|---|---|---|---|
| 1777692601 | 12.22° C | 59% | 1025.2 hPa | 0 mm | - | - | - |
| 1777691700 | 11.67° C | 58% | 1025.3 hPa | 0 mm | - | - | - |
| 1777690800 | 11.67° C | 59% | 1025.4 hPa | 0 mm | - | - | - |
| 1777689901 | 11.67° C | 58% | 1025.3 hPa | 0 mm | - | - | - |
| 1777689000 | 11.67° C | 56% | 1025.4 hPa | 0 mm | - | - | - |
| 1777688101 | 12.22° C | 56% | 1025.2 hPa | 0 mm | - | - | - |
| 1777687201 | 12.22° C | 56% | 1025.3 hPa | 0 mm | - | - | - |
| 1777686301 | 12.22° C | 55% | 1025.3 hPa | 0 mm | - | - | - |
| 1777685401 | 12.22° C | 55% | 1025.3 hPa | 0 mm | - | - | - |
| 1777684501 | 12.22° C | 55% | 1025.2 hPa | 0 mm | - | - | - |
| 1777683601 | 12.22° C | 54% | 1025.4 hPa | 0 mm | - | - | - |
| 1777682700 | 12.22° C | 56% | 1025.2 hPa | 0 mm | - | - | - |
| 1777681801 | 12.22° C | 55% | 1025.5 hPa | 0 mm | - | - | - |
| 1777680901 | 12.78° C | 52% | 1025.2 hPa | 0 mm | - | - | - |
| 1777680001 | 13.33° C | 50% | 1025.5 hPa | 0 mm | - | - | - |
| 1777679101 | 13.33° C | 50% | 1025.4 hPa | 0 mm | - | - | - |
| 1777678201 | 13.33° C | 50% | 1025.5 hPa | 0 mm | - | - | - |
| 1777677301 | 12.78° C | 52% | 1025.4 hPa | 0 mm | - | - | - |
| 1777676401 | 12.78° C | 52% | 1025.5 hPa | 0 mm | - | - | - |
| 1777675501 | 13.33° C | 51% | 1025.4 hPa | 0 mm | - | - | - |
| 1777674601 | 13.89° C | 50% | 1025.5 hPa | 0 mm | - | - | - |
| 1777673701 | 12.78° C | 53% | 1025.7 hPa | 0 mm | - | - | - |
| 1777672801 | 13.33° C | 51% | 1025.5 hPa | 0 mm | - | - | - |
| 1777671900 | 13.33° C | 52% | 1025.4 hPa | 0 mm | - | - | - |
| 1777671000 | 13.89° C | 52% | 1025.5 hPa | 0 mm | - | - | - |
* Rain latest hour (hover to see other rain measurements)
** Current wind speed in m/s (hover to see current wind gust speed)